Time;durP1;ratioP1;P1;durP2;ratioP2;P2;SDS_P1;SDS_P2;PMS_P1;PMS_P2;Temp;Humidity;BMP_temperature;BMP_pressure;BME280_temperature;BME280_humidity;BME280_pressure;Samples;Min_cycle;Max_cycle;Signal;HPM_P1;HPM_P2
2023/03/14 00:01:57;;;;;;;6.67;1.43;;;10.70;99.90;;;;;;5035924;28;20222;-82
2023/03/14 00:04:23;;;;;;;1.27;0.97;;;10.70;99.90;;;;;;5054475;28;20558;-84
2023/03/14 00:06:49;;;;;;;9.93;1.13;;;10.70;99.90;;;;;;5060001;28;20236;-79
2023/03/14 00:09:16;;;;;;;2.10;1.50;;;10.80;99.90;;;;;;5047482;28;20735;-82
2023/03/14 00:11:41;;;;;;;0.63;0.63;;;10.70;99.90;;;;;;5057644;28;20237;-84
2023/03/14 00:14:07;;;;;;;2.90;1.50;;;10.70;99.90;;;;;;5057552;28;20210;-82
2023/03/14 00:16:33;;;;;;;1.27;1.17;;;10.70;99.90;;;;;;5047533;28;20546;-82
2023/03/14 00:18:59;;;;;;;0.60;0.60;;;10.70;99.90;;;;;;5057376;28;20185;-82
2023/03/14 00:21:26;;;;;;;2.37;0.83;;;10.70;99.90;;;;;;5054865;28;20556;-82
2023/03/14 00:23:52;;;;;;;4.20;1.07;;;10.70;99.90;;;;;;5055108;28;20229;-84
2023/03/14 00:26:19;;;;;;;6.70;0.43;;;10.70;99.90;;;;;;5057640;28;20224;-84
2023/03/14 00:28:46;;;;;;;3.60;1.80;;;10.60;99.90;;;;;;5057453;28;21111;-81
2023/03/14 00:31:15;;;;;;;2.40;1.43;;;10.50;99.90;;;;;;5054289;28;20566;-82
2023/03/14 00:33:42;;;;;;;3.53;1.00;;;10.50;99.90;;;;;;5056260;28;20309;-81
2023/03/14 00:36:11;;;;;;;12.73;0.57;;;10.40;99.90;;;;;;5056859;28;20695;-83
2023/03/14 00:38:39;;;;;;;2.10;1.03;;;10.40;99.90;;;;;;5056735;28;20244;-83
2023/03/14 00:41:11;;;;;;;0.90;0.53;;;10.30;99.90;;;;;;5056717;28;20231;-80
2023/03/14 00:43:37;;;;;;;2.40;1.27;;;10.30;99.90;;;;;;5055229;28;20327;-82
2023/03/14 00:46:04;;;;;;;0.67;0.67;;;10.20;99.90;;;;;;5062879;28;20193;-80
2023/03/14 00:48:30;;;;;;;2.13;1.17;;;10.20;99.90;;;;;;5056544;28;20234;-82
2023/03/14 00:50:55;;;;;;;2.53;0.63;;;10.10;99.90;;;;;;5056234;28;20709;-81
2023/03/14 00:53:21;;;;;;;0.73;0.73;;;10.10;99.90;;;;;;5055708;28;20699;-81
2023/03/14 00:55:49;;;;;;;1.17;0.87;;;10.10;99.90;;;;;;5063196;28;20281;-85
2023/03/14 00:58:16;;;;;;;2.10;0.83;;;10.20;99.90;;;;;;5056685;28;20189;-81
2023/03/14 01:00:42;;;;;;;1.40;0.30;;;10.20;99.90;;;;;;5055014;28;20565;-83
2023/03/14 01:03:08;;;;;;;1.83;1.73;;;10.20;99.90;;;;;;5057181;28;20231;-81
2023/03/14 01:05:34;;;;;;;5.00;1.03;;;10.20;99.90;;;;;;5039026;28;20205;-81
2023/03/14 01:08:00;;;;;;;5.10;0.90;;;10.30;99.90;;;;;;5055997;28;20225;-83
2023/03/14 01:10:29;;;;;;;0.37;0.37;;;10.30;99.90;;;;;;5054295;28;20189;-83
2023/03/14 01:12:55;;;;;;;4.60;1.13;;;10.20;99.90;;;;;;5056139;28;20598;-81
2023/03/14 01:15:21;;;;;;;2.07;1.27;;;10.20;99.90;;;;;;5054779;28;20225;-85
2023/03/14 01:17:47;;;;;;;4.00;1.37;;;10.20;99.90;;;;;;5054058;28;20225;-84
2023/03/14 01:20:14;;;;;;;1.73;1.63;;;10.20;99.90;;;;;;5056248;28;20244;-82
2023/03/14 01:22:41;;;;;;;2.17;1.97;;;10.20;99.90;;;;;;5062077;28;20313;-81
2023/03/14 01:25:10;;;;;;;3.47;1.10;;;10.20;99.90;;;;;;5054345;28;20186;-82
2023/03/14 01:27:36;;;;;;;2.53;2.33;;;10.10;99.90;;;;;;5053953;28;20231;-82
2023/03/14 01:30:04;;;;;;;1.83;0.97;;;10.10;99.90;;;;;;5054295;28;20662;-82
2023/03/14 01:32:29;;;;;;;0.93;0.90;;;10.00;99.90;;;;;;5053334;28;20308;-82
2023/03/14 01:34:56;;;;;;;0.70;0.40;;;10.00;99.90;;;;;;5053271;28;20331;-84
2023/03/14 01:37:21;;;;;;;10.23;2.07;;;9.90;99.90;;;;;;5054666;28;20204;-86
2023/03/14 01:39:47;;;;;;;9.90;1.73;;;9.90;99.90;;;;;;5036286;28;20275;-82
2023/03/14 01:42:14;;;;;;;0.50;0.33;;;9.90;99.90;;;;;;5051546;28;20213;-82
2023/03/14 01:44:53;;;;;;;3.77;0.90;;;9.90;99.90;;;;;;5058416;28;20258;-83
2023/03/14 01:47:19;;;;;;;5.53;1.57;;;9.80;99.90;;;;;;5054249;28;20300;-83
2023/03/14 01:49:49;;;;;;;3.50;1.00;;;9.80;99.90;;;;;;5055512;28;20182;-83
2023/03/14 01:52:22;;;;;;;0.30;0.30;;;9.80;99.90;;;;;;5056293;28;20241;-85
2023/03/14 01:55:05;;;;;;;1.40;1.30;;;9.80;99.90;;;;;;5055137;28;20216;-83
2023/03/14 01:57:39;;;;;;;7.03;1.10;;;9.80;99.90;;;;;;5054214;28;20765;-81
2023/03/14 02:00:16;;;;;;;0.67;0.67;;;9.80;99.90;;;;;;5053267;28;20238;-81
2023/03/14 02:02:54;;;;;;;3.70;1.87;;;9.80;99.90;;;;;;5070511;28;20224;-81
2023/03/14 02:05:25;;;;;;;5.43;0.83;;;9.80;99.90;;;;;;5054498;28;20305;-82
2023/03/14 02:07:58;;;;;;;2.60;1.77;;;9.70;99.90;;;;;;5052615;28;20216;-81
2023/03/14 02:10:31;;;;;;;1.70;0.70;;;9.70;99.90;;;;;;5054745;28;20654;-82
2023/03/14 02:13:01;;;;;;;1.67;0.80;;;9.70;99.90;;;;;;5056353;28;20243;-83
2023/03/14 02:15:27;;;;;;;8.73;1.57;;;9.70;99.90;;;;;;5054454;28;20374;-81
2023/03/14 02:17:53;;;;;;;1.63;1.53;;;9.60;99.90;;;;;;5055442;28;20311;-85
2023/03/14 02:20:34;;;;;;;0.73;0.73;;;9.60;99.90;;;;;;5054460;28;20222;-81
2023/03/14 02:23:00;;;;;;;0.60;0.60;;;9.60;99.90;;;;;;5054452;28;20267;-81
2023/03/14 02:25:43;;;;;;;0.90;0.70;;;9.60;99.90;;;;;;5053756;28;20183;-84
2023/03/14 02:28:10;;;;;;;1.23;0.90;;;9.50;99.90;;;;;;5055476;28;20245;-84
2023/03/14 02:30:36;;;;;;;2.57;1.70;;;9.50;99.90;;;;;;5051845;28;20245;-84
2023/03/14 02:33:09;;;;;;;2.37;1.20;;;9.50;99.90;;;;;;5054223;28;20333;-84
2023/03/14 02:35:58;;;;;;;0.63;0.57;;;9.50;99.90;;;;;;5054590;28;20700;-85
2023/03/14 02:38:26;;;;;;;1.13;0.67;;;9.50;99.90;;;;;;5054316;28;20308;-82
2023/03/14 02:40:52;;;;;;;4.87;0.80;;;9.50;99.90;;;;;;5054664;28;20212;-83
2023/03/14 02:43:18;;;;;;;1.30;1.07;;;9.50;99.90;;;;;;5055169;28;21084;-85
2023/03/14 02:45:47;;;;;;;0.60;0.53;;;9.50;99.90;;;;;;5053442;28;20765;-86
2023/03/14 02:48:17;;;;;;;6.33;2.00;;;9.40;99.90;;;;;;5052322;28;20245;-85
2023/03/14 02:50:45;;;;;;;0.67;0.67;;;9.40;99.90;;;;;;5054613;28;20223;-84
2023/03/14 02:53:16;;;;;;;3.73;1.73;;;9.50;99.90;;;;;;5053571;28;20678;-83
2023/03/14 02:55:46;;;;;;;1.33;1.13;;;9.40;99.90;;;;;;5052448;28;20272;-82
2023/03/14 02:58:12;;;;;;;0.13;0.13;;;9.40;99.90;;;;;;5056392;28;20226;-83
2023/03/14 03:00:38;;;;;;;0.63;0.63;;;9.40;99.90;;;;;;5054390;28;20225;-88
2023/03/14 03:03:05;;;;;;;2.33;1.23;;;9.40;99.90;;;;;;5045242;28;20224;-83
2023/03/14 03:05:31;;;;;;;2.30;1.67;;;9.40;99.90;;;;;;5058495;28;20238;-85
2023/03/14 03:07:57;;;;;;;1.07;0.97;;;9.50;99.90;;;;;;5057318;28;20228;-87
2023/03/14 03:10:24;;;;;;;5.77;1.53;;;9.50;99.90;;;;;;5057334;28;20586;-82
2023/03/14 03:12:51;;;;;;;0.67;0.63;;;9.50;99.90;;;;;;5059388;28;20225;-83
2023/03/14 03:15:17;;;;;;;1.63;0.97;;;9.50;99.90;;;;;;5058161;28;20221;-85
2023/03/14 03:17:43;;;;;;;8.43;0.83;;;9.50;99.90;;;;;;5048579;28;20543;-83
2023/03/14 03:20:09;;;;;;;7.00;0.47;;;9.50;99.90;;;;;;5038412;28;20266;-85
2023/03/14 03:22:38;;;;;;;2.17;0.93;;;9.50;99.90;;;;;;5057067;28;21009;-85
2023/03/14 03:25:06;;;;;;;3.20;1.70;;;9.50;99.90;;;;;;5058683;28;20192;-84
2023/03/14 03:27:36;;;;;;;4.20;1.67;;;9.50;99.90;;;;;;5039866;28;20308;-83
2023/03/14 03:30:04;;;;;;;1.43;1.43;;;9.50;99.90;;;;;;5043576;28;20214;-84
2023/03/14 03:32:30;;;;;;;2.77;2.57;;;9.60;99.90;;;;;;5056983;28;20221;-83
2023/03/14 03:34:56;;;;;;;2.27;0.87;;;9.60;99.90;;;;;;5056372;28;20718;-82
2023/03/14 03:37:21;;;;;;;2.33;0.93;;;9.60;99.90;;;;;;5059404;28;20244;-85
2023/03/14 03:39:49;;;;;;;0.63;0.60;;;9.60;99.90;;;;;;5039928;28;20217;-85
2023/03/14 03:42:15;;;;;;;2.97;2.20;;;9.70;99.90;;;;;;5055736;28;20248;-84
2023/03/14 03:44:41;;;;;;;1.47;1.37;;;9.70;99.90;;;;;;5057403;28;20241;-88
2023/03/14 03:47:06;;;;;;;2.30;1.13;;;9.70;99.90;;;;;;5048080;28;20221;-85
2023/03/14 03:49:32;;;;;;;7.83;2.37;;;9.70;99.90;;;;;;5040473;28;20185;-85
2023/03/14 03:51:58;;;;;;;0.60;0.60;;;9.70;99.90;;;;;;5057466;28;20358;-83
2023/03/14 03:54:25;;;;;;;12.47;2.50;;;9.70;99.90;;;;;;5040550;28;20783;-85
2023/03/14 03:56:50;;;;;;;2.37;0.67;;;9.70;99.90;;;;;;5041236;28;20605;-85
2023/03/14 03:59:17;;;;;;;5.57;1.37;;;9.70;99.90;;;;;;5055217;28;20216;-84
2023/03/14 04:01:42;;;;;;;4.43;1.90;;;9.70;99.90;;;;;;5055930;28;20189;-86
2023/03/14 04:04:08;;;;;;;4.10;1.30;;;9.70;99.90;;;;;;5058370;28;20208;-83
2023/03/14 04:06:34;;;;;;;1.17;0.50;;;9.80;99.90;;;;;;5057098;28;20228;-84
2023/03/14 04:09:00;;;;;;;1.47;1.20;;;9.70;99.90;;;;;;5055260;28;20209;-85
2023/03/14 04:11:26;;;;;;;1.30;0.93;;;9.70;99.90;;;;;;5058526;28;20205;-84
2023/03/14 04:13:51;;;;;;;8.80;1.47;;;9.70;99.90;;;;;;5054965;28;20577;-87
2023/03/14 04:16:21;;;;;;;7.57;1.83;;;9.70;99.90;;;;;;5047727;28;20190;-85
2023/03/14 04:18:47;;;;;;;1.20;0.90;;;9.70;99.90;;;;;;5057754;28;20213;-85
2023/03/14 04:21:13;;;;;;;0.73;0.70;;;9.70;99.90;;;;;;5023404;28;20260;-84
2023/03/14 04:23:39;;;;;;;5.47;2.63;;;9.70;99.90;;;;;;5054485;28;20241;-85
2023/03/14 04:26:05;;;;;;;4.27;1.33;;;9.60;99.90;;;;;;5037860;28;20300;-85
2023/03/14 04:28:31;;;;;;;2.10;0.80;;;9.60;99.90;;;;;;5057841;28;20193;-89
2023/03/14 04:30:57;;;;;;;6.53;0.97;;;9.60;99.90;;;;;;5057667;28;20194;-82
2023/03/14 04:33:22;;;;;;;2.00;0.37;;;9.60;99.90;;;;;;5054292;28;20332;-83
2023/03/14 04:35:50;;;;;;;1.67;1.60;;;9.50;99.90;;;;;;5055709;28;20233;-82
2023/03/14 04:38:15;;;;;;;0.70;0.70;;;9.50;99.90;;;;;;5058842;28;20336;-85
2023/03/14 04:40:42;;;;;;;9.43;1.80;;;9.40;99.90;;;;;;5058583;28;20671;-85
2023/03/14 04:43:09;;;;;;;11.63;0.97;;;9.40;99.90;;;;;;5056336;28;20224;-84
2023/03/14 04:45:35;;;;;;;11.03;1.33;;;9.40;99.90;;;;;;5055561;28;20209;-82
2023/03/14 04:48:01;;;;;;;2.00;1.80;;;9.40;99.90;;;;;;5040328;28;20594;-82
2023/03/14 04:50:27;;;;;;;0.50;0.40;;;9.40;99.90;;;;;;5060817;28;20224;-83
2023/03/14 04:52:53;;;;;;;3.90;1.17;;;9.40;99.90;;;;;;5039353;28;20221;-84
2023/03/14 04:55:18;;;;;;;0.23;0.23;;;9.40;99.90;;;;;;5056733;28;20235;-83
2023/03/14 04:57:44;;;;;;;0.43;0.37;;;9.40;99.90;;;;;;5054989;28;20301;-84
2023/03/14 05:00:10;;;;;;;0.43;0.40;;;9.40;99.90;;;;;;5040666;28;20225;-84
2023/03/14 05:02:36;;;;;;;1.37;0.83;;;9.40;99.90;;;;;;5057084;28;20221;-83
2023/03/14 05:05:02;;;;;;;0.43;0.27;;;9.40;99.90;;;;;;5040204;28;20237;-83
2023/03/14 05:07:28;;;;;;;7.30;0.93;;;9.30;99.90;;;;;;5055881;28;20225;-83
2023/03/14 05:09:53;;;;;;;0.40;0.40;;;9.30;99.90;;;;;;5046249;28;20228;-85
2023/03/14 05:12:20;;;;;;;0.60;0.60;;;9.30;99.90;;;;;;5055250;28;20225;-85
2023/03/14 05:14:46;;;;;;;2.53;0.60;;;9.30;99.90;;;;;;5055839;28;20283;-82
2023/03/14 05:17:14;;;;;;;5.73;0.70;;;9.30;99.90;;;;;;5038135;28;20233;-83
2023/03/14 05:19:40;;;;;;;0.40;0.40;;;9.30;99.90;;;;;;5055855;28;20402;-82
2023/03/14 05:22:06;;;;;;;2.17;0.73;;;9.30;99.90;;;;;;5057832;28;20747;-83
2023/03/14 05:24:33;;;;;;;0.80;0.80;;;9.20;99.90;;;;;;5056305;28;20256;-85
2023/03/14 05:26:58;;;;;;;0.73;0.73;;;9.20;99.90;;;;;;5052658;28;20222;-82
2023/03/14 05:29:24;;;;;;;0.10;0.10;;;8.80;99.90;;;;;;5053187;28;20276;-84
2023/03/14 05:31:50;;;;;;;0.20;0.20;;;8.40;99.90;;;;;;5055137;28;20671;-82
2023/03/14 05:34:16;;;;;;;0.60;0.60;;;8.20;99.90;;;;;;5039052;28;20241;-84
2023/03/14 05:36:42;;;;;;;0.17;0.17;;;8.00;99.90;;;;;;5046247;28;20237;-83
2023/03/14 05:39:07;;;;;;;1.80;0.63;;;7.80;99.90;;;;;;5038349;28;20568;-89
2023/03/14 05:41:33;;;;;;;2.10;1.23;;;7.50;99.90;;;;;;5046433;28;20255;-82
2023/03/14 05:43:59;;;;;;;0.10;0.10;;;7.20;99.90;;;;;;5036439;28;20224;-84
2023/03/14 05:46:24;;;;;;;0.37;0.37;;;7.10;99.90;;;;;;5038640;28;20185;-85
2023/03/14 05:48:50;;;;;;;0.30;0.30;;;7.00;99.90;;;;;;5055142;28;20651;-84
2023/03/14 05:51:16;;;;;;;0.50;0.50;;;7.00;99.90;;;;;;5053730;28;20499;-87
2023/03/14 05:53:42;;;;;;;3.63;1.80;;;6.90;99.90;;;;;;5021432;28;20229;-86
2023/03/14 05:56:08;;;;;;;0.47;0.47;;;6.80;99.90;;;;;;5058745;28;20213;-88
2023/03/14 05:58:34;;;;;;;0.20;0.20;;;6.50;99.90;;;;;;5057617;28;20551;-86
2023/03/14 06:01:06;;;;;;;1.47;0.47;;;6.30;99.90;;;;;;5058504;28;20199;-85
2023/03/14 06:03:32;;;;;;;0.27;0.27;;;6.20;99.90;;;;;;5055019;28;20585;-88
2023/03/14 06:05:58;;;;;;;1.30;0.80;;;6.10;99.90;;;;;;5054846;28;20213;-87
2023/03/14 06:08:24;;;;;;;0.27;0.27;;;6.10;99.90;;;;;;5054600;28;20221;-86
2023/03/14 06:10:51;;;;;;;0.90;0.90;;;6.00;99.90;;;;;;5043686;28;20232;-86
2023/03/14 06:13:17;;;;;;;0.63;0.63;;;5.90;99.90;;;;;;5056011;28;20209;-87
2023/03/14 06:15:43;;;;;;;3.80;0.50;;;5.80;99.90;;;;;;5039971;28;20274;-88
2023/03/14 06:18:09;;;;;;;1.37;1.10;;;5.80;99.90;;;;;;5056884;28;20221;-86
2023/03/14 06:20:39;;;;;;;0.20;0.20;;;5.70;99.90;;;;;;5039707;28;20202;-89
2023/03/14 06:23:06;;;;;;;0.20;0.20;;;5.70;99.90;;;;;;5054459;28;20213;-87
2023/03/14 06:25:33;;;;;;;0.57;0.57;;;5.70;99.90;;;;;;5046895;28;20738;-88
2023/03/14 06:27:58;;;;;;;0.77;0.77;;;5.70;99.90;;;;;;5056813;28;20193;-86
2023/03/14 06:30:24;;;;;;;1.43;1.03;;;5.70;99.90;;;;;;5054382;28;20274;-89
2023/03/14 06:32:50;;;;;;;0.20;0.20;;;5.70;99.90;;;;;;5053442;28;20225;-88
2023/03/14 06:35:16;;;;;;;1.43;0.43;;;5.70;99.90;;;;;;5054845;28;20217;-87
2023/03/14 06:37:42;;;;;;;0.30;0.30;;;5.70;99.90;;;;;;5055642;28;20839;-87
2023/03/14 06:40:10;;;;;;;0.57;0.37;;;5.70;99.90;;;;;;5055918;28;20190;-87
2023/03/14 06:42:36;;;;;;;0.50;0.50;;;5.70;99.90;;;;;;5054122;28;20598;-87
2023/03/14 06:45:02;;;;;;;0.20;0.20;;;5.70;99.90;;;;;;5054557;28;20248;-90
2023/03/14 06:47:28;;;;;;;0.30;0.30;;;5.60;99.90;;;;;;5054500;28;20638;-85
2023/03/14 06:49:54;;;;;;;0.30;0.30;;;5.60;99.90;;;;;;5057514;28;20297;-84
2023/03/14 06:52:20;;;;;;;0.23;0.23;;;5.50;99.90;;;;;;5041536;28;20299;-86
2023/03/14 06:54:46;;;;;;;0.53;0.53;;;5.50;99.90;;;;;;5057703;28;20233;-88
2023/03/14 06:57:11;;;;;;;0.20;0.20;;;5.50;99.90;;;;;;5047276;28;20221;-91
2023/03/14 06:59:37;;;;;;;0.20;0.20;;;5.50;99.90;;;;;;5055300;28;20244;-86
2023/03/14 07:02:03;;;;;;;0.20;0.20;;;5.50;99.90;;;;;;5042196;28;20599;-86
2023/03/14 07:04:29;;;;;;;0.20;0.20;;;5.60;99.90;;;;;;5060989;28;20650;-86
2023/03/14 07:06:54;;;;;;;0.20;0.20;;;5.60;99.90;;;;;;5054781;28;20629;-86
2023/03/14 07:09:20;;;;;;;0.20;0.20;;;5.60;99.90;;;;;;5059576;28;20214;-85
2023/03/14 07:11:46;;;;;;;0.30;0.30;;;5.60;99.90;;;;;;5053961;28;20241;-85
2023/03/14 07:14:12;;;;;;;0.50;0.50;;;5.70;99.90;;;;;;5055162;28;20355;-86
2023/03/14 07:16:37;;;;;;;0.20;0.20;;;5.70;99.90;;;;;;5043156;28;20588;-86
2023/03/14 07:19:03;;;;;;;0.80;0.80;;;5.70;99.90;;;;;;5039131;28;20642;-87
2023/03/14 07:21:29;;;;;;;0.20;0.20;;;5.70;99.90;;;;;;5035104;28;20629;-87
2023/03/14 07:23:55;;;;;;;0.30;0.30;;;5.80;99.90;;;;;;5034764;28;20301;-85
2023/03/14 07:26:21;;;;;;;1.17;1.17;;;5.80;99.90;;;;;;5052213;28;20333;-87
2023/03/14 07:28:47;;;;;;;0.93;0.93;;;5.80;99.90;;;;;;5045587;28;20217;-86
2023/03/14 07:31:13;;;;;;;0.20;0.20;;;5.80;99.90;;;;;;5053947;28;20190;-87
2023/03/14 07:33:39;;;;;;;0.30;0.30;;;5.80;99.90;;;;;;5055653;28;20248;-86
2023/03/14 07:36:05;;;;;;;0.30;0.30;;;5.90;99.90;;;;;;5046104;28;20221;-87
2023/03/14 07:38:30;;;;;;;3.30;0.93;;;5.90;99.90;;;;;;5046544;28;20237;-87
2023/03/14 07:41:01;;;;;;;2.20;0.90;;;6.00;99.90;;;;;;5044332;28;20217;-84
2023/03/14 07:43:29;;;;;;;2.17;0.50;;;6.00;99.90;;;;;;5039273;28;20724;-85
2023/03/14 07:45:54;;;;;;;0.20;0.20;;;6.00;99.90;;;;;;5055685;28;20581;-84
2023/03/14 07:48:21;;;;;;;0.23;0.23;;;6.00;99.90;;;;;;5055146;28;20214;-86
2023/03/14 07:50:55;;;;;;;0.20;0.20;;;6.10;99.90;;;;;;5054780;28;20218;-87
2023/03/14 07:53:21;;;;;;;2.03;1.67;;;6.10;99.90;;;;;;5061562;28;20226;-86
2023/03/14 07:55:47;;;;;;;0.40;0.40;;;6.20;99.90;;;;;;5047970;28;20464;-85
2023/03/14 07:58:14;;;;;;;2.63;0.40;;;6.20;99.90;;;;;;5057659;28;20197;-89
2023/03/14 08:00:39;;;;;;;0.40;0.40;;;6.20;99.90;;;;;;5054090;28;20744;-85
2023/03/14 08:03:05;;;;;;;0.20;0.20;;;6.20;99.90;;;;;;5057749;28;20213;-84
2023/03/14 08:05:34;;;;;;;0.20;0.20;;;6.30;99.90;;;;;;5058724;28;20555;-86
2023/03/14 08:08:00;;;;;;;4.93;0.97;;;6.40;99.90;;;;;;5058991;28;20675;-85
2023/03/14 08:10:27;;;;;;;11.83;0.73;;;6.50;99.90;;;;;;5040674;28;20196;-85
2023/03/14 08:13:01;;;;;;;1.70;1.60;;;6.60;99.90;;;;;;5037863;28;20316;-85
2023/03/14 08:15:29;;;;;;;2.87;0.67;;;6.70;99.90;;;;;;5046370;28;20320;-85
2023/03/14 08:17:55;;;;;;;0.20;0.20;;;6.70;99.90;;;;;;5054859;28;20209;-88
2023/03/14 08:20:24;;;;;;;0.40;0.40;;;6.80;99.90;;;;;;5056939;28;20214;-87
2023/03/14 08:22:49;;;;;;;0.63;0.57;;;6.90;99.90;;;;;;5057247;28;20230;-84
2023/03/14 08:25:16;;;;;;;0.20;0.20;;;7.00;99.90;;;;;;5046301;28;20799;-83
2023/03/14 08:27:42;;;;;;;1.30;1.30;;;6.90;99.90;;;;;;5044257;28;20287;-84
2023/03/14 08:30:11;;;;;;;1.07;1.07;;;7.00;99.90;;;;;;5054078;28;20272;-88
2023/03/14 08:32:37;;;;;;;7.67;1.60;;;7.20;99.90;;;;;;5058605;28;20225;-85
2023/03/14 08:35:05;;;;;;;1.60;1.10;;;7.10;99.90;;;;;;5056337;28;20724;-85
2023/03/14 08:37:35;;;;;;;1.70;0.50;;;7.10;99.90;;;;;;5079944;28;20724;-84
2023/03/14 08:40:04;;;;;;;1.83;0.80;;;6.90;99.90;;;;;;5055925;28;21153;-87
2023/03/14 08:42:30;;;;;;;1.83;0.57;;;6.70;99.90;;;;;;5056711;28;20218;-87
2023/03/14 08:44:56;;;;;;;0.67;0.40;;;6.30;99.90;;;;;;5053541;28;20225;-87
2023/03/14 08:47:21;;;;;;;1.13;0.53;;;6.20;99.90;;;;;;5054066;28;21271;-87
2023/03/14 08:49:47;;;;;;;1.03;0.93;;;6.20;99.90;;;;;;5061588;28;20225;-87
2023/03/14 08:52:13;;;;;;;0.20;0.20;;;6.30;99.90;;;;;;5040259;28;20236;-87
2023/03/14 08:54:39;;;;;;;0.47;0.40;;;6.40;99.90;;;;;;5056573;28;20271;-89
2023/03/14 08:57:04;;;;;;;0.30;0.30;;;6.50;99.90;;;;;;5052823;28;20213;-84
2023/03/14 08:59:30;;;;;;;0.57;0.57;;;6.70;99.90;;;;;;5048384;28;20210;-90
2023/03/14 09:01:56;;;;;;;1.73;0.93;;;6.80;99.90;;;;;;5055230;28;20218;-86
2023/03/14 09:04:22;;;;;;;0.70;0.60;;;6.90;99.90;;;;;;5059248;28;20200;-89
2023/03/14 09:06:47;;;;;;;0.20;0.20;;;6.90;99.90;;;;;;5057740;28;20323;-87
2023/03/14 09:09:13;;;;;;;2.00;0.73;;;6.90;99.90;;;;;;5056098;28;20678;-85
2023/03/14 09:11:39;;;;;;;0.30;0.30;;;6.80;99.90;;;;;;5038506;28;20209;-86
2023/03/14 09:14:06;;;;;;;0.20;0.20;;;6.90;99.90;;;;;;5056790;28;20517;-87
2023/03/14 09:16:33;;;;;;;0.87;0.87;;;6.80;99.90;;;;;;5055245;28;20238;-85
2023/03/14 09:18:59;;;;;;;4.33;3.20;;;6.80;99.90;;;;;;5041901;28;20190;-86
2023/03/14 09:21:26;;;;;;;0.30;0.30;;;6.70;99.90;;;;;;5056066;28;20213;-85
2023/03/14 09:23:53;;;;;;;1.13;1.13;;;6.80;99.90;;;;;;5049430;28;20272;-85
2023/03/14 09:26:19;;;;;;;0.20;0.20;;;7.00;99.90;;;;;;5047888;28;20216;-87
2023/03/14 09:28:45;;;;;;;0.40;0.40;;;7.00;99.90;;;;;;5058691;28;20181;-85
2023/03/14 09:31:12;;;;;;;1.73;0.90;;;7.10;99.90;;;;;;5056588;28;20215;-84
2023/03/14 09:33:38;;;;;;;0.63;0.57;;;7.30;99.90;;;;;;5052316;28;20324;-84
2023/03/14 09:36:05;;;;;;;0.50;0.50;;;7.20;99.90;;;;;;5045234;28;20217;-84
2023/03/14 09:38:32;;;;;;;0.43;0.33;;;7.20;99.90;;;;;;5054669;28;20213;-83
2023/03/14 09:41:00;;;;;;;0.20;0.20;;;7.10;99.90;;;;;;5054725;28;20221;-87
2023/03/14 09:43:30;;;;;;;0.30;0.30;;;7.30;99.90;;;;;;5053382;28;20185;-87
2023/03/14 09:45:58;;;;;;;0.73;0.73;;;7.40;99.90;;;;;;5056814;28;20218;-86
2023/03/14 09:48:30;;;;;;;0.83;0.70;;;7.30;99.90;;;;;;5054989;28;20217;-83
2023/03/14 09:50:59;;;;;;;0.20;0.20;;;7.10;99.90;;;;;;5055254;28;20689;-83
2023/03/14 09:53:45;;;;;;;0.40;0.40;;;7.20;99.90;;;;;;5052876;28;20406;-87
2023/03/14 09:56:27;;;;;;;2.10;0.70;;;7.30;99.90;;;;;;5053028;28;20229;-85
2023/03/14 09:58:58;;;;;;;0.30;0.30;;;7.30;99.90;;;;;;5055184;28;20217;-89
2023/03/14 10:01:30;;;;;;;5.40;0.43;;;7.20;99.90;;;;;;5055214;28;20196;-89
2023/03/14 10:04:00;;;;;;;3.33;0.80;;;7.00;99.90;;;;;;5056686;28;20216;-86
2023/03/14 10:06:28;;;;;;;0.53;0.53;;;6.80;99.90;;;;;;5053656;28;20221;-88
2023/03/14 10:08:54;;;;;;;0.83;0.43;;;7.00;99.90;;;;;;5055556;28;20222;-85
2023/03/14 10:11:20;;;;;;;5.33;0.87;;;7.50;99.90;;;;;;5056486;28;20477;-86
2023/03/14 10:14:10;;;;;;;0.20;0.20;;;7.70;99.90;;;;;;5071978;28;20213;-85
2023/03/14 10:16:42;;;;;;;0.30;0.30;;;8.00;99.90;;;;;;5052987;28;20178;-84
2023/03/14 10:19:12;;;;;;;0.33;0.33;;;8.20;99.90;;;;;;5055715;28;20632;-86
2023/03/14 10:21:50;;;;;;;0.23;0.23;;;8.00;99.90;;;;;;5055149;28;20212;-85
2023/03/14 10:24:28;;;;;;;0.77;0.40;;;8.00;99.90;;;;;;5077741;28;20213;-88
2023/03/14 10:27:06;;;;;;;5.80;0.77;;;7.70;99.90;;;;;;5055083;28;20232;-84
2023/03/14 10:29:34;;;;;;;0.57;0.57;;;7.40;99.90;;;;;;5055184;28;20674;-86
2023/03/14 10:32:01;;;;;;;0.70;0.70;;;7.00;99.90;;;;;;5062207;28;20236;-85
2023/03/14 10:34:37;;;;;;;2.23;0.77;;;7.60;99.90;;;;;;5057009;28;20391;-84
2023/03/14 10:37:16;;;;;;;0.20;0.20;;;7.60;99.90;;;;;;5056475;28;20268;-87
2023/03/14 10:39:47;;;;;;;0.23;0.23;;;8.00;99.90;;;;;;5054623;28;20215;-84
2023/03/14 10:42:17;;;;;;;0.83;0.63;;;7.90;99.90;;;;;;5054175;28;20658;-86
2023/03/14 10:44:44;;;;;;;0.50;0.40;;;7.90;99.90;;;;;;5054323;28;20300;-86
2023/03/14 10:47:22;;;;;;;1.20;0.50;;;7.90;99.90;;;;;;5054026;28;20216;-87
2023/03/14 10:49:48;;;;;;;2.00;0.60;;;7.90;99.90;;;;;;5057220;28;20178;-85
2023/03/14 10:52:19;;;;;;;2.30;0.40;;;7.70;99.90;;;;;;5053410;28;20224;-85
2023/03/14 10:55:08;;;;;;;0.57;0.57;;;7.10;99.90;;;;;;5056134;28;20249;-87
2023/03/14 10:57:39;;;;;;;9.53;0.70;;;7.30;99.90;;;;;;5054783;28;20253;-84
2023/03/14 11:00:14;;;;;;;1.10;0.77;;;7.50;99.90;;;;;;5052792;28;20225;-87
2023/03/14 11:02:58;;;;;;;0.20;0.20;;;7.90;99.90;;;;;;5053530;28;20254;-86
2023/03/14 11:05:27;;;;;;;0.80;0.80;;;7.90;99.90;;;;;;5055096;28;20226;-85
2023/03/14 11:08:00;;;;;;;0.23;0.23;;;8.20;99.90;;;;;;5055376;28;20275;-84
2023/03/14 11:10:37;;;;;;;0.20;0.20;;;8.20;99.90;;;;;;5053118;28;20277;-84
2023/03/14 11:13:15;;;;;;;2.27;0.40;;;8.40;99.90;;;;;;5058322;28;20699;-85
2023/03/14 11:15:52;;;;;;;0.20;0.20;;;8.50;99.90;;;;;;5053550;28;20221;-83
2023/03/14 11:19:11;;;;;;;0.27;0.27;;;8.70;99.90;;;;;;5053613;28;20217;-85
2023/03/14 11:21:59;;;;;;;0.40;0.40;;;8.90;99.90;;;;;;5022755;28;20571;-85
2023/03/14 11:24:30;;;;;;;2.20;0.67;;;8.10;99.90;;;;;;5053925;28;20249;-85
2023/03/14 11:27:17;;;;;;;0.20;0.20;;;7.60;99.90;;;;;;5058244;28;20228;-85
2023/03/14 11:29:58;;;;;;;2.43;0.70;;;7.50;99.90;;;;;;5056228;28;20300;-85
2023/03/14 11:32:46;;;;;;;0.27;0.27;;;7.30;99.90;;;;;;5058316;28;20285;-85
2023/03/14 11:35:22;;;;;;;0.70;0.70;;;7.00;99.90;;;;;;5057270;28;20269;-85
2023/03/14 11:38:07;;;;;;;0.57;0.57;;;6.90;99.90;;;;;;5059668;28;20185;-85
2023/03/14 11:40:35;;;;;;;0.37;0.37;;;6.90;99.90;;;;;;5057308;28;20655;-87
2023/03/14 11:43:17;;;;;;;0.50;0.50;;;7.10;99.90;;;;;;5058321;28;20193;-85
2023/03/14 11:45:43;;;;;;;11.77;1.10;;;7.20;99.90;;;;;;5059777;28;20241;-85
2023/03/14 11:48:34;;;;;;;0.20;0.20;;;7.60;99.90;;;;;;5056214;28;20221;-85
2023/03/14 11:51:04;;;;;;;4.53;0.57;;;7.40;99.90;;;;;;5058389;28;20631;-86
2023/03/14 11:53:44;;;;;;;0.80;0.80;;;7.10;99.90;;;;;;5058301;28;20256;-86
2023/03/14 11:56:25;;;;;;;0.20;0.20;;;7.00;99.90;;;;;;5064528;28;20209;-86
2023/03/14 11:58:57;;;;;;;1.33;0.93;;;7.20;99.90;;;;;;5060427;28;20217;-86
2023/03/14 12:01:31;;;;;;;2.33;0.50;;;7.40;99.90;;;;;;5059444;28;20181;-86
2023/03/14 12:04:25;;;;;;;0.50;0.50;;;7.20;99.90;;;;;;5056850;28;20213;-87
2023/03/14 12:06:51;;;;;;;2.87;0.67;;;7.20;99.90;;;;;;5053952;28;20663;-87
2023/03/14 12:09:21;;;;;;;0.30;0.30;;;7.30;99.90;;;;;;5056409;28;20217;-88
2023/03/14 12:11:56;;;;;;;0.30;0.30;;;7.30;99.90;;;;;;5045204;28;20686;-86
2023/03/14 12:14:37;;;;;;;0.63;0.40;;;7.40;99.90;;;;;;5066092;28;20619;-86
2023/03/14 12:17:12;;;;;;;0.30;0.30;;;7.30;99.90;;;;;;5057341;28;20240;-86
2023/03/14 12:19:39;;;;;;;0.20;0.20;;;7.30;99.90;;;;;;5057715;28;20197;-86
2023/03/14 12:22:08;;;;;;;0.30;0.30;;;7.40;99.90;;;;;;5058418;28;20195;-86
2023/03/14 12:24:37;;;;;;;0.40;0.40;;;7.30;99.90;;;;;;5056780;28;20324;-87
2023/03/14 12:27:05;;;;;;;0.20;0.20;;;7.40;99.90;;;;;;5056158;28;20229;-85
2023/03/14 12:29:30;;;;;;;0.77;0.23;;;7.40;99.90;;;;;;5055963;28;20319;-86
2023/03/14 12:32:23;;;;;;;0.20;0.20;;;7.70;99.90;;;;;;5055341;28;20257;-85
2023/03/14 12:34:49;;;;;;;0.20;0.20;;;8.00;99.90;;;;;;5046602;28;20687;-86
2023/03/14 12:37:29;;;;;;;2.00;0.67;;;7.70;99.90;;;;;;5053399;28;20557;-86
2023/03/14 12:40:24;;;;;;;0.37;0.37;;;7.70;99.90;;;;;;5060071;28;20213;-85
2023/03/14 12:43:03;;;;;;;0.53;0.53;;;7.80;99.90;;;;;;5054757;28;20748;-86
2023/03/14 12:45:36;;;;;;;0.27;0.27;;;7.80;99.90;;;;;;5056530;28;20271;-86
2023/03/14 12:48:20;;;;;;;1.90;0.60;;;7.90;99.90;;;;;;5055792;28;20734;-87
2023/03/14 12:50:54;;;;;;;1.50;0.50;;;7.80;99.90;;;;;;5058779;28;20244;-84
2023/03/14 12:53:33;;;;;;;0.20;0.20;;;7.80;99.90;;;;;;5058750;28;20311;-84
2023/03/14 12:56:32;;;;;;;0.93;0.60;;;7.80;99.90;;;;;;5055071;28;21052;-86
2023/03/14 12:59:18;;;;;;;0.30;0.30;;;8.00;99.90;;;;;;5056277;28;20213;-88
2023/03/14 13:02:07;;;;;;;0.20;0.20;;;7.90;99.90;;;;;;5054316;28;20691;-82
2023/03/14 13:04:49;;;;;;;0.40;0.40;;;7.80;99.90;;;;;;5057191;28;20280;-85
2023/03/14 13:07:33;;;;;;;0.20;0.20;;;7.80;99.90;;;;;;5057055;28;20254;-84